Time;durP1;ratioP1;P1;durP2;ratioP2;P2;SDS_P1;SDS_P2;PMS_P1;PMS_P2;Temp;Humidity;BMP_temperature;BMP_pressure;BME280_temperature;BME280_humidity;BME280_pressure;Samples;Min_cycle;Max_cycle;Signal;HPM_P1;HPM_P2
2022/02/24 00:00:01;;;;;;;0.80;0.80;;;;;;;;;;5007457;28;20030;-74
2022/02/24 00:02:27;;;;;;;0.10;0.10;;;;;;;;;;4996643;28;20025;-74
2022/02/24 00:04:54;;;;;;;0.75;0.75;;;;;;;;;;4999292;28;20485;-74
2022/02/24 00:07:20;;;;;;;0.05;0.05;;;;;;;;;;5000191;28;20072;-74
2022/02/24 00:09:46;;;;;;;0.10;0.10;;;;;;;;;;4990914;28;20022;-74
2022/02/24 00:12:12;;;;;;;0.25;0.25;;;;;;;;;;4995720;28;20053;-74
2022/02/24 00:14:38;;;;;;;0.43;0.43;;;;;;;;;;4999025;28;20431;-75
2022/02/24 00:17:07;;;;;;;0.20;0.20;;;;;;;;;;4994411;28;20447;-75
2022/02/24 00:19:33;;;;;;;0.52;0.20;;;;;;;;;;4997204;28;20037;-75
2022/02/24 00:21:59;;;;;;;0.43;0.43;;;;;;;;;;5013086;28;20029;-75
2022/02/24 00:24:24;;;;;;;0.20;0.20;;;;;;;;;;4995544;28;20484;-74
2022/02/24 00:26:51;;;;;;;0.43;0.43;;;;;;;;;;5006917;28;20473;-74
2022/02/24 00:29:17;;;;;;;0.20;0.20;;;;;;;;;;5006991;28;20778;-75
2022/02/24 00:31:43;;;;;;;1.08;0.80;;;;;;;;;;5005399;28;20022;-74
2022/02/24 00:34:09;;;;;;;0.95;0.93;;;;;;;;;;4993237;28;20680;-75
2022/02/24 00:36:35;;;;;;;0.20;0.20;;;;;;;;;;5006948;28;20034;-74
2022/02/24 00:39:01;;;;;;;0.68;0.68;;;;;;;;;;5007601;28;20860;-74
2022/02/24 00:41:27;;;;;;;1.08;0.52;;;;;;;;;;4999155;28;20040;-74
2022/02/24 00:43:53;;;;;;;2.92;0.45;;;;;;;;;;5007086;28;20434;-74
2022/02/24 00:46:19;;;;;;;0.30;0.30;;;;;;;;;;5000200;28;20488;-74
2022/02/24 00:48:45;;;;;;;0.13;0.13;;;;;;;;;;5000230;28;20690;-74
2022/02/24 00:51:11;;;;;;;0.20;0.20;;;;;;;;;;5005186;28;20125;-74
2022/02/24 00:53:41;;;;;;;0.20;0.20;;;;;;;;;;4989180;28;20033;-74
2022/02/24 00:56:07;;;;;;;0.73;0.73;;;;;;;;;;4990435;28;20050;-75
2022/02/24 00:58:33;;;;;;;0.00;0.00;;;;;;;;;;4999774;28;20480;-74
2022/02/24 01:00:59;;;;;;;0.10;0.10;;;;;;;;;;4996687;28;20022;-74
2022/02/24 01:03:24;;;;;;;0.10;0.10;;;;;;;;;;5005712;28;20053;-74
2022/02/24 01:05:50;;;;;;;0.17;0.17;;;;;;;;;;5009574;28;20080;-74
2022/02/24 01:08:16;;;;;;;0.10;0.10;;;;;;;;;;4995939;28;20037;-74
2022/02/24 01:10:42;;;;;;;0.30;0.22;;;;;;;;;;5011157;28;20653;-74
2022/02/24 01:13:08;;;;;;;0.30;0.30;;;;;;;;;;5009579;28;20155;-74
2022/02/24 01:15:38;;;;;;;0.20;0.20;;;;;;;;;;5010142;28;20037;-75
2022/02/24 01:18:04;;;;;;;0.20;0.20;;;;;;;;;;5010601;28;20038;-74
2022/02/24 01:20:30;;;;;;;0.30;0.30;;;;;;;;;;4995606;28;20038;-74
2022/02/24 01:22:56;;;;;;;0.20;0.20;;;;;;;;;;5005840;28;20032;-74
2022/02/24 01:25:22;;;;;;;0.20;0.20;;;;;;;;;;5010460;28;20527;-74
2022/02/24 01:27:48;;;;;;;0.28;0.28;;;;;;;;;;4998481;28;20027;-74
2022/02/24 01:30:14;;;;;;;0.38;0.38;;;;;;;;;;4995592;28;20113;-75
2022/02/24 01:32:40;;;;;;;0.10;0.10;;;;;;;;;;4991959;28;20105;-75
2022/02/24 01:35:06;;;;;;;1.00;0.47;;;;;;;;;;5008440;28;20022;-74
2022/02/24 01:37:32;;;;;;;0.47;0.47;;;;;;;;;;5010900;28;20026;-75
2022/02/24 01:39:58;;;;;;;0.20;0.20;;;;;;;;;;5010756;28;20460;-74
2022/02/24 01:42:24;;;;;;;0.20;0.20;;;;;;;;;;5002512;28;20038;-74
2022/02/24 01:44:50;;;;;;;0.30;0.30;;;;;;;;;;5002041;28;20088;-74
2022/02/24 01:47:16;;;;;;;0.20;0.20;;;;;;;;;;5008619;28;20029;-74
2022/02/24 01:49:42;;;;;;;0.03;0.03;;;;;;;;;;5010789;28;20037;-74
2022/02/24 01:52:10;;;;;;;0.08;0.08;;;;;;;;;;5001641;28;20035;-74
2022/02/24 01:54:36;;;;;;;0.20;0.20;;;;;;;;;;4993210;28;20076;-74
2022/02/24 01:57:02;;;;;;;0.15;0.15;;;;;;;;;;5001009;28;20054;-74
2022/02/24 01:59:28;;;;;;;1.50;1.08;;;;;;;;;;4990783;28;20026;-75
2022/02/24 02:01:54;;;;;;;0.10;0.10;;;;;;;;;;4996734;28;20133;-75
2022/02/24 02:04:20;;;;;;;0.20;0.20;;;;;;;;;;4990554;28;20117;-75
2022/02/24 02:06:46;;;;;;;2.35;0.85;;;;;;;;;;5004204;28;20069;-75
2022/02/24 02:09:12;;;;;;;0.17;0.17;;;;;;;;;;5009777;28;20033;-74
2022/02/24 02:11:38;;;;;;;0.20;0.20;;;;;;;;;;5006500;28;20026;-75
2022/02/24 02:14:04;;;;;;;0.40;0.40;;;;;;;;;;5009891;28;20049;-74
2022/02/24 02:16:30;;;;;;;0.30;0.30;;;;;;;;;;5008759;28;20033;-74
2022/02/24 02:18:56;;;;;;;0.25;0.25;;;;;;;;;;4995185;28;20030;-74
2022/02/24 02:21:22;;;;;;;0.20;0.20;;;;;;;;;;5005435;28;20412;-74
2022/02/24 02:23:48;;;;;;;1.55;1.35;;;;;;;;;;5001350;28;20057;-74
2022/02/24 02:26:14;;;;;;;0.30;0.30;;;;;;;;;;5008651;28;20017;-75
2022/02/24 02:28:40;;;;;;;0.40;0.35;;;;;;;;;;4998939;28;20456;-74
2022/02/24 02:31:06;;;;;;;0.15;0.15;;;;;;;;;;5003141;28;20084;-74
2022/02/24 02:33:31;;;;;;;0.15;0.15;;;;;;;;;;5007791;28;20022;-74
2022/02/24 02:35:57;;;;;;;0.20;0.20;;;;;;;;;;5008407;28;20022;-75
2022/02/24 02:38:23;;;;;;;0.20;0.20;;;;;;;;;;5000139;28;20065;-74
2022/02/24 02:40:49;;;;;;;1.30;0.82;;;;;;;;;;5009268;28;20396;-74
2022/02/24 02:43:15;;;;;;;0.45;0.45;;;;;;;;;;5006464;28;20123;-75
2022/02/24 02:45:41;;;;;;;0.20;0.20;;;;;;;;;;5002917;28;20484;-74
2022/02/24 02:48:07;;;;;;;0.10;0.10;;;;;;;;;;5006797;28;20029;-74
2022/02/24 02:50:34;;;;;;;0.10;0.10;;;;;;;;;;5004050;28;20036;-75
2022/02/24 02:53:03;;;;;;;0.40;0.40;;;;;;;;;;4999232;28;20053;-74
2022/02/24 02:55:29;;;;;;;0.32;0.32;;;;;;;;;;4995633;28;20065;-74
2022/02/24 02:57:55;;;;;;;0.30;0.30;;;;;;;;;;4992952;28;20046;-75
2022/02/24 03:00:21;;;;;;;0.10;0.10;;;;;;;;;;4990866;28;20022;-75
2022/02/24 03:02:47;;;;;;;0.43;0.43;;;;;;;;;;5009164;28;20519;-74
2022/02/24 03:05:13;;;;;;;0.00;0.00;;;;;;;;;;4999749;28;20113;-75
2022/02/24 03:07:39;;;;;;;0.43;0.43;;;;;;;;;;4998671;28;20835;-74
2022/02/24 03:10:06;;;;;;;0.28;0.28;;;;;;;;;;5008687;28;20025;-74
2022/02/24 03:12:36;;;;;;;0.45;0.43;;;;;;;;;;5006884;28;20410;-74
2022/02/24 03:15:08;;;;;;;0.03;0.03;;;;;;;;;;5009207;28;20022;-75
2022/02/24 03:17:35;;;;;;;0.20;0.20;;;;;;;;;;4990814;28;20385;-75
2022/02/24 03:20:00;;;;;;;0.10;0.10;;;;;;;;;;4991853;28;20034;-74
2022/02/24 03:22:26;;;;;;;0.45;0.35;;;;;;;;;;5003337;28;20025;-74
2022/02/24 03:24:52;;;;;;;1.25;1.08;;;;;;;;;;4989358;28;20101;-74
2022/02/24 03:27:18;;;;;;;0.00;0.00;;;;;;;;;;4989433;28;20034;-74
2022/02/24 03:29:44;;;;;;;1.25;0.82;;;;;;;;;;4992458;28;20037;-74
2022/02/24 03:32:10;;;;;;;0.10;0.10;;;;;;;;;;5004570;28;20030;-75
2022/02/24 03:34:36;;;;;;;0.10;0.10;;;;;;;;;;5005862;28;20045;-75
2022/02/24 03:37:02;;;;;;;0.05;0.05;;;;;;;;;;5001247;28;20030;-74
2022/02/24 03:39:28;;;;;;;0.30;0.30;;;;;;;;;;5007002;28;20025;-74
2022/02/24 03:41:54;;;;;;;5.15;0.70;;;;;;;;;;4984891;28;20038;-75
2022/02/24 03:44:20;;;;;;;0.20;0.20;;;;;;;;;;4998138;28;20021;-75
2022/02/24 03:46:47;;;;;;;0.75;0.40;;;;;;;;;;4996730;28;20600;-74
2022/02/24 03:49:15;;;;;;;0.10;0.10;;;;;;;;;;5005929;28;20014;-74
2022/02/24 03:51:42;;;;;;;0.10;0.10;;;;;;;;;;4996708;28;20405;-74
2022/02/24 03:54:07;;;;;;;0.75;0.75;;;;;;;;;;5007886;28;20051;-74
2022/02/24 03:56:33;;;;;;;0.45;0.45;;;;;;;;;;5007670;28;20061;-75
2022/02/24 03:58:59;;;;;;;0.22;0.22;;;;;;;;;;5007623;28;20030;-74
2022/02/24 04:01:25;;;;;;;0.10;0.10;;;;;;;;;;4989797;28;20026;-74
2022/02/24 04:03:51;;;;;;;0.20;0.20;;;;;;;;;;4991482;28;20516;-74
2022/02/24 04:06:17;;;;;;;0.10;0.10;;;;;;;;;;5007732;28;20041;-75
2022/02/24 04:08:43;;;;;;;0.00;0.00;;;;;;;;;;5007061;28;20030;-74
2022/02/24 04:11:09;;;;;;;0.20;0.20;;;;;;;;;;5006939;28;20113;-74
2022/02/24 04:13:35;;;;;;;0.10;0.10;;;;;;;;;;4999643;28;20014;-75
2022/02/24 04:16:01;;;;;;;0.10;0.10;;;;;;;;;;5007577;28;20183;-74
2022/02/24 04:18:27;;;;;;;0.10;0.10;;;;;;;;;;5005584;28;20101;-74
2022/02/24 04:20:53;;;;;;;1.13;1.08;;;;;;;;;;5002116;28;20034;-74
2022/02/24 04:23:19;;;;;;;0.40;0.30;;;;;;;;;;4996129;28;20229;-74
2022/02/24 04:25:45;;;;;;;0.30;0.30;;;;;;;;;;4989648;28;20388;-74
2022/02/24 04:28:10;;;;;;;0.15;0.15;;;;;;;;;;4997404;28;20076;-74
2022/02/24 04:30:37;;;;;;;0.10;0.10;;;;;;;;;;5006900;28;20022;-74
2022/02/24 04:33:02;;;;;;;0.10;0.10;;;;;;;;;;5000295;28;20037;-75
2022/02/24 04:35:28;;;;;;;0.10;0.10;;;;;;;;;;4992341;28;20485;-75
2022/02/24 04:37:54;;;;;;;0.00;0.00;;;;;;;;;;4997743;28;20389;-75
2022/02/24 04:40:20;;;;;;;0.45;0.45;;;;;;;;;;5006432;28;20120;-75
2022/02/24 04:42:46;;;;;;;2.75;0.15;;;;;;;;;;5000574;28;20133;-74
2022/02/24 04:45:12;;;;;;;0.90;0.80;;;;;;;;;;4997919;28;20138;-74
2022/02/24 04:47:38;;;;;;;0.00;0.00;;;;;;;;;;5011128;28;20022;-74
2022/02/24 04:50:05;;;;;;;0.10;0.10;;;;;;;;;;5005536;28;20473;-74
2022/02/24 04:52:31;;;;;;;0.10;0.10;;;;;;;;;;4996546;28;20118;-74
2022/02/24 04:54:57;;;;;;;0.30;0.30;;;;;;;;;;4996490;28;20030;-75
2022/02/24 04:57:23;;;;;;;0.10;0.10;;;;;;;;;;5000123;28;20093;-74
2022/02/24 04:59:49;;;;;;;0.08;0.08;;;;;;;;;;4997201;28;20546;-74
2022/02/24 05:02:15;;;;;;;0.28;0.28;;;;;;;;;;4999024;28;20129;-74
2022/02/24 05:04:41;;;;;;;0.15;0.15;;;;;;;;;;5008874;28;20391;-74
2022/02/24 05:07:07;;;;;;;0.38;0.38;;;;;;;;;;5011237;28;20389;-74
2022/02/24 05:09:33;;;;;;;0.10;0.10;;;;;;;;;;5010663;28;20026;-74
2022/02/24 05:11:58;;;;;;;0.10;0.10;;;;;;;;;;4998651;28;20026;-74
2022/02/24 05:14:24;;;;;;;0.10;0.10;;;;;;;;;;5005229;28;20447;-74
2022/02/24 05:16:50;;;;;;;0.73;0.73;;;;;;;;;;5001912;28;20108;-75
2022/02/24 05:19:16;;;;;;;0.10;0.10;;;;;;;;;;5005377;28;20100;-74
2022/02/24 05:21:42;;;;;;;0.20;0.20;;;;;;;;;;5009979;28;20033;-74
2022/02/24 05:24:08;;;;;;;0.15;0.15;;;;;;;;;;4998059;28;20018;-74
2022/02/24 05:26:34;;;;;;;0.05;0.05;;;;;;;;;;4991464;28;20493;-75
2022/02/24 05:29:00;;;;;;;0.20;0.20;;;;;;;;;;4995449;28;20658;-73
2022/02/24 05:31:26;;;;;;;0.15;0.15;;;;;;;;;;5009813;28;20026;-74
2022/02/24 05:33:51;;;;;;;0.08;0.08;;;;;;;;;;5007476;28;20092;-74
2022/02/24 05:36:17;;;;;;;1.15;0.57;;;;;;;;;;5009599;28;20681;-74
2022/02/24 05:38:43;;;;;;;0.10;0.10;;;;;;;;;;5008677;28;20180;-75
2022/02/24 05:41:09;;;;;;;0.68;0.68;;;;;;;;;;5010179;28;20149;-75
2022/02/24 05:43:35;;;;;;;2.17;0.43;;;;;;;;;;5006592;28;20036;-74
2022/02/24 05:46:01;;;;;;;0.10;0.10;;;;;;;;;;5009829;28;20033;-74
2022/02/24 05:48:27;;;;;;;0.75;0.52;;;;;;;;;;4995736;28;20040;-75
2022/02/24 05:50:53;;;;;;;0.10;0.10;;;;;;;;;;4987017;28;20419;-75
2022/02/24 05:53:19;;;;;;;0.22;0.22;;;;;;;;;;5004247;28;20110;-74
2022/02/24 05:55:45;;;;;;;0.10;0.10;;;;;;;;;;5007952;28;20432;-74
2022/02/24 05:58:10;;;;;;;0.00;0.00;;;;;;;;;;5009640;28;20026;-74
2022/02/24 06:00:36;;;;;;;0.70;0.70;;;;;;;;;;5010097;28;20061;-75
2022/02/24 06:03:02;;;;;;;0.60;0.20;;;;;;;;;;5009483;28;20030;-74
2022/02/24 06:05:28;;;;;;;0.73;0.73;;;;;;;;;;5008969;28;20034;-74
2022/02/24 06:07:54;;;;;;;0.10;0.10;;;;;;;;;;5008337;28;20443;-74
2022/02/24 06:10:20;;;;;;;0.73;0.65;;;;;;;;;;5009840;28;20025;-74
2022/02/24 06:12:46;;;;;;;0.10;0.10;;;;;;;;;;4996329;28;20046;-74
2022/02/24 06:15:13;;;;;;;0.00;0.00;;;;;;;;;;5005803;28;20025;-74
2022/02/24 06:17:39;;;;;;;1.00;0.95;;;;;;;;;;5000587;28;20022;-75
2022/02/24 06:20:06;;;;;;;0.20;0.20;;;;;;;;;;5008765;28;20389;-74
2022/02/24 06:22:32;;;;;;;0.43;0.43;;;;;;;;;;5005979;28;20496;-74
2022/02/24 06:24:58;;;;;;;0.08;0.08;;;;;;;;;;5008866;28;20026;-74
2022/02/24 06:27:24;;;;;;;0.20;0.20;;;;;;;;;;5008660;28;20535;-74
2022/02/24 06:29:50;;;;;;;0.30;0.30;;;;;;;;;;5008653;28;20072;-73
2022/02/24 06:32:16;;;;;;;0.10;0.10;;;;;;;;;;4995239;28;20063;-74
2022/02/24 06:34:45;;;;;;;0.17;0.17;;;;;;;;;;5009112;28;20030;-74
2022/02/24 06:37:11;;;;;;;0.08;0.08;;;;;;;;;;5004051;28;20025;-75
2022/02/24 06:39:36;;;;;;;0.00;0.00;;;;;;;;;;5008750;28;20084;-74
2022/02/24 06:42:02;;;;;;;0.17;0.17;;;;;;;;;;5006732;28;20014;-74
2022/02/24 06:44:30;;;;;;;3.50;0.45;;;;;;;;;;4998132;28;20116;-74
2022/02/24 06:46:56;;;;;;;0.10;0.10;;;;;;;;;;5003227;28;20029;-74
2022/02/24 06:49:22;;;;;;;0.73;0.35;;;;;;;;;;4999041;28;20030;-75
2022/02/24 06:51:54;;;;;;;0.20;0.20;;;;;;;;;;5002969;28;20037;-74
2022/02/24 06:54:20;;;;;;;0.10;0.10;;;;;;;;;;5003134;28;20057;-74
2022/02/24 06:57:08;;;;;;;0.68;0.68;;;;;;;;;;5002906;28;20054;-73
2022/02/24 06:59:34;;;;;;;0.00;0.00;;;;;;;;;;4997691;28;20041;-77
2022/02/24 07:02:00;;;;;;;0.32;0.32;;;;;;;;;;4996777;28;20036;-79
2022/02/24 07:04:26;;;;;;;0.28;0.28;;;;;;;;;;5003676;28;20038;-78
2022/02/24 07:06:52;;;;;;;1.75;0.98;;;;;;;;;;4999801;28;20022;-74
2022/02/24 07:09:18;;;;;;;0.00;0.00;;;;;;;;;;5003248;28;20065;-74
2022/02/24 07:11:44;;;;;;;1.38;0.63;;;;;;;;;;5007980;28;20492;-73
2022/02/24 07:14:10;;;;;;;1.60;0.40;;;;;;;;;;4991354;28;20424;-74
2022/02/24 07:16:37;;;;;;;0.50;0.50;;;;;;;;;;4997668;28;20044;-73
2022/02/24 07:19:04;;;;;;;0.70;0.70;;;;;;;;;;4997827;28;20113;-74
2022/02/24 07:21:30;;;;;;;0.17;0.17;;;;;;;;;;4996911;28;20042;-74
2022/02/24 07:23:56;;;;;;;0.10;0.10;;;;;;;;;;4989310;28;20034;-74
2022/02/24 07:26:22;;;;;;;0.90;0.90;;;;;;;;;;4999492;28;20029;-74
2022/02/24 07:28:48;;;;;;;0.00;0.00;;;;;;;;;;5005885;28;20026;-75
2022/02/24 07:31:14;;;;;;;38.53;1.75;;;;;;;;;;5008799;28;20024;-74
2022/02/24 07:33:40;;;;;;;0.05;0.05;;;;;;;;;;5008292;28;20033;-76
2022/02/24 07:36:06;;;;;;;0.10;0.10;;;;;;;;;;5005808;28;20083;-74
2022/02/24 07:38:32;;;;;;;0.57;0.57;;;;;;;;;;5005222;28;20808;-70
2022/02/24 07:40:58;;;;;;;1.30;0.75;;;;;;;;;;5008109;28;20686;-71
2022/02/24 07:43:24;;;;;;;0.10;0.10;;;;;;;;;;5005232;28;20072;-72
2022/02/24 07:45:50;;;;;;;0.40;0.40;;;;;;;;;;5004755;28;20040;-72
2022/02/24 07:48:16;;;;;;;0.03;0.03;;;;;;;;;;5004509;28;20027;-71
2022/02/24 07:50:42;;;;;;;0.80;0.30;;;;;;;;;;4987767;28;20030;-73
2022/02/24 07:53:08;;;;;;;0.20;0.20;;;;;;;;;;4990195;28;20354;-74
2022/02/24 07:55:33;;;;;;;0.08;0.05;;;;;;;;;;5004611;28;20139;-73
2022/02/24 07:57:59;;;;;;;1.80;0.90;;;;;;;;;;5000848;28;20088;-74
2022/02/24 08:00:25;;;;;;;0.00;0.00;;;;;;;;;;4991579;28;20054;-74
2022/02/24 08:02:51;;;;;;;9.55;0.90;;;;;;;;;;5000131;28;20038;-74
2022/02/24 08:05:18;;;;;;;0.20;0.20;;;;;;;;;;4994523;28;20018;-74
2022/02/24 08:07:54;;;;;;;2.90;0.90;;;;;;;;;;4973666;28;20030;-73
2022/02/24 08:10:20;;;;;;;0.08;0.08;;;;;;;;;;5005019;28;20030;-73
2022/02/24 08:13:00;;;;;;;0.28;0.28;;;;;;;;;;4998738;28;20485;-72
2022/02/24 08:15:26;;;;;;;0.00;0.00;;;;;;;;;;5001262;28;20042;-73
2022/02/24 08:17:52;;;;;;;0.20;0.20;;;;;;;;;;5005151;28;20022;-73
2022/02/24 08:20:18;;;;;;;0.28;0.28;;;;;;;;;;5006566;28;20476;-72
2022/02/24 08:22:45;;;;;;;0.05;0.05;;;;;;;;;;5003068;28;20034;-73
2022/02/24 08:25:13;;;;;;;0.00;0.00;;;;;;;;;;5007169;28;20053;-72
2022/02/24 08:27:40;;;;;;;2.00;0.43;;;;;;;;;;5004028;28;20033;-73
2022/02/24 08:30:09;;;;;;;2.35;0.63;;;;;;;;;;5007334;28;20622;-73
2022/02/24 08:32:35;;;;;;;0.32;0.32;;;;;;;;;;5005771;28;20630;-73
2022/02/24 08:35:01;;;;;;;0.10;0.10;;;;;;;;;;5007636;28;20084;-72
2022/02/24 08:37:27;;;;;;;2.83;0.73;;;;;;;;;;4998226;28;20023;-72
2022/02/24 08:39:54;;;;;;;0.10;0.10;;;;;;;;;;5003962;28;20022;-73
2022/02/24 08:42:22;;;;;;;0.10;0.10;;;;;;;;;;5005895;28;20033;-73
2022/02/24 08:44:48;;;;;;;3.30;1.45;;;;;;;;;;4992922;28;20022;-72
2022/02/24 08:47:14;;;;;;;0.22;0.22;;;;;;;;;;4997818;28;20041;-72
2022/02/24 08:49:40;;;;;;;0.45;0.30;;;;;;;;;;5000367;28;20041;-73
2022/02/24 08:52:07;;;;;;;0.65;0.50;;;;;;;;;;4997695;28;20441;-73
2022/02/24 08:54:33;;;;;;;0.35;0.35;;;;;;;;;;5005847;28;20034;-73
2022/02/24 08:57:02;;;;;;;0.00;0.00;;;;;;;;;;4998429;28;20046;-73
2022/02/24 08:59:28;;;;;;;0.28;0.25;;;;;;;;;;4997628;28;20030;-72
2022/02/24 09:01:54;;;;;;;1.35;0.70;;;;;;;;;;5004118;28;20224;-73
2022/02/24 09:04:20;;;;;;;0.20;0.20;;;;;;;;;;5001396;28;20473;-73
2022/02/24 09:06:46;;;;;;;0.10;0.10;;;;;;;;;;4987541;28;20037;-72
2022/02/24 09:09:11;;;;;;;0.32;0.32;;;;;;;;;;5003233;28;20028;-72
2022/02/24 09:11:38;;;;;;;0.82;0.82;;;;;;;;;;5006490;28;20033;-72
2022/02/24 09:14:04;;;;;;;0.05;0.05;;;;;;;;;;5004018;28;20068;-72
2022/02/24 09:16:30;;;;;;;0.20;0.20;;;;;;;;;;5002966;28;20499;-72
2022/02/24 09:18:56;;;;;;;0.22;0.22;;;;;;;;;;5006119;28;20077;-72
2022/02/24 09:21:22;;;;;;;0.25;0.25;;;;;;;;;;5004650;28;20088;-73
2022/02/24 09:23:49;;;;;;;0.30;0.30;;;;;;;;;;4998451;28;20438;-73
2022/02/24 09:26:15;;;;;;;0.22;0.17;;;;;;;;;;5003112;28;20116;-73
2022/02/24 09:28:41;;;;;;;2.20;0.90;;;;;;;;;;4998045;28;20597;-73
2022/02/24 09:31:08;;;;;;;0.00;0.00;;;;;;;;;;5001384;28;20520;-73
2022/02/24 09:33:34;;;;;;;1.00;0.45;;;;;;;;;;5005436;28;20397;-73
2022/02/24 09:36:00;;;;;;;1.67;0.90;;;;;;;;;;5001749;28;20053;-73
2022/02/24 09:38:26;;;;;;;0.10;0.10;;;;;;;;;;4993566;28;20034;-73
2022/02/24 09:40:54;;;;;;;4.95;0.47;;;;;;;;;;4997582;28;20034;-74
2022/02/24 09:43:23;;;;;;;0.20;0.20;;;;;;;;;;4994985;28;20026;-73
2022/02/24 09:45:49;;;;;;;0.57;0.50;;;;;;;;;;5007892;28;20453;-73
2022/02/24 09:48:17;;;;;;;0.00;0.00;;;;;;;;;;5002348;28;20113;-72
2022/02/24 09:50:50;;;;;;;0.10;0.10;;;;;;;;;;4993361;28;20485;-74
2022/02/24 09:53:16;;;;;;;0.00;0.00;;;;;;;;;;4999553;28;20026;-74
2022/02/24 09:55:42;;;;;;;0.00;0.00;;;;;;;;;;5008953;28;20092;-74
2022/02/24 09:58:08;;;;;;;0.20;0.20;;;;;;;;;;5001763;28;20042;-74
2022/02/24 10:00:34;;;;;;;1.83;1.23;;;;;;;;;;5003059;28;20469;-73
2022/02/24 10:02:59;;;;;;;0.03;0.03;;;;;;;;;;5003504;28;20037;-74
2022/02/24 10:05:25;;;;;;;1.35;1.25;;;;;;;;;;4999913;28;20469;-73
2022/02/24 10:07:52;;;;;;;0.10;0.10;;;;;;;;;;4998358;28;20334;-74
2022/02/24 10:10:31;;;;;;;0.22;0.22;;;;;;;;;;4995478;28;20027;-74
2022/02/24 10:13:01;;;;;;;0.03;0.03;;;;;;;;;;5002214;28;20156;-73
2022/02/24 10:15:27;;;;;;;0.10;0.10;;;;;;;;;;5001767;28;20412;-78
2022/02/24 10:18:05;;;;;;;0.43;0.43;;;;;;;;;;5009489;28;20228;-74
2022/02/24 10:20:35;;;;;;;0.08;0.08;;;;;;;;;;5007818;28;20029;-74
2022/02/24 10:23:01;;;;;;;0.05;0.05;;;;;;;;;;5005231;28;20049;-75
2022/02/24 10:25:27;;;;;;;0.10;0.10;;;;;;;;;;5006908;28;20046;-75
2022/02/24 10:27:53;;;;;;;0.32;0.32;;;;;;;;;;5005299;28;20030;-74
2022/02/24 10:30:19;;;;;;;0.60;0.60;;;;;;;;;;5007825;28;20033;-76
2022/02/24 10:33:01;;;;;;;0.52;0.47;;;;;;;;;;5003523;28;20022;-75
2022/02/24 10:35:26;;;;;;;;;;;;;;;;;;5007752;28;20038;-75
2022/02/24 10:37:55;;;;;;;0.00;0.00;;;;;;;;;;5006960;28;19939;-75
2022/02/24 10:40:22;;;;;;;0.35;0.35;;;;;;;;;;5003281;28;20030;-74
2022/02/24 10:42:48;;;;;;;0.15;0.13;;;;;;;;;;5003743;28;20045;-75
2022/02/24 10:45:17;;;;;;;0.10;0.10;;;;;;;;;;5003056;28;20480;-75
2022/02/24 10:48:15;;;;;;;0.70;0.70;;;;;;;;;;5004140;28;20048;-73
2022/02/24 10:50:57;;;;;;;0.32;0.32;;;;;;;;;;4959547;28;20153;-74
2022/02/24 10:53:25;;;;;;;0.30;0.30;;;;;;;;;;5004256;28;20064;-73
2022/02/24 10:56:10;;;;;;;0.10;0.10;;;;;;;;;;5006160;28;20556;-73
2022/02/24 10:58:39;;;;;;;0.00;0.00;;;;;;;;;;5007762;28;20072;-73
2022/02/24 11:01:19;;;;;;;0.15;0.15;;;;;;;;;;5002562;28;20397;-81
2022/02/24 11:03:46;;;;;;;0.00;0.00;;;;;;;;;;5000787;28;20025;-77
2022/02/24 11:06:13;;;;;;;0.03;0.03;;;;;;;;;;5001413;28;20361;-77
2022/02/24 11:08:39;;;;;;;0.10;0.10;;;;;;;;;;4996571;28;20026;-76
2022/02/24 11:11:06;;;;;;;0.05;0.05;;;;;;;;;;5001880;28;20077;-76
2022/02/24 11:13:32;;;;;;;1.08;0.63;;;;;;;;;;5000048;28;20090;-76
2022/02/24 11:15:59;;;;;;;5.97;1.20;;;;;;;;;;5000211;28;20037;-76
2022/02/24 11:18:31;;;;;;;0.10;0.10;;;;;;;;;;4998637;28;20029;-76
2022/02/24 11:20:57;;;;;;;0.20;0.20;;;;;;;;;;4995651;28;20046;-80
2022/02/24 11:23:24;;;;;;;0.30;0.30;;;;;;;;;;5002513;28;20036;-78
2022/02/24 11:26:04;;;;;;;0.10;0.10;;;;;;;;;;5001443;28;20504;-79
2022/02/24 11:28:41;;;;;;;0.52;0.52;;;;;;;;;;4995207;28;20029;-76
2022/02/24 11:31:16;;;;;;;0.68;0.68;;;;;;;;;;4989805;28;20025;-73
2022/02/24 11:33:42;;;;;;;0.00;0.00;;;;;;;;;;5002837;28;20099;-74
2022/02/24 11:36:14;;;;;;;1.55;0.98;;;;;;;;;;4989018;28;20473;-74
2022/02/24 11:38:40;;;;;;;0.00;0.00;;;;;;;;;;4994488;28;20508;-74
2022/02/24 11:41:06;;;;;;;1.35;1.08;;;;;;;;;;4989028;28;20182;-73
2022/02/24 11:43:33;;;;;;;1.23;1.15;;;;;;;;;;4997541;28;20029;-71
2022/02/24 11:46:02;;;;;;;0.70;0.55;;;;;;;;;;5007931;28;20036;-71
2022/02/24 11:48:30;;;;;;;0.85;0.85;;;;;;;;;;5006793;28;20119;-72
2022/02/24 11:50:57;;;;;;;0.03;0.03;;;;;;;;;;5007966;28;20106;-75
2022/02/24 11:53:28;;;;;;;0.30;0.30;;;;;;;;;;5005352;28;20092;-74
2022/02/24 11:55:55;;;;;;;0.10;0.10;;;;;;;;;;5008645;28;20412;-74
2022/02/24 11:58:31;;;;;;;2.38;0.90;;;;;;;;;;5006510;28;20036;-72
2022/02/24 12:01:11;;;;;;;0.20;0.20;;;;;;;;;;4998349;28;20041;-73
2022/02/24 12:03:46;;;;;;;0.20;0.20;;;;;;;;;;5003256;28;20049;-78
2022/02/24 12:06:13;;;;;;;0.60;0.60;;;;;;;;;;5008407;28;20081;-76
2022/02/24 12:08:57;;;;;;;0.03;0.03;;;;;;;;;;5000394;28;20105;-74
2022/02/24 12:11:27;;;;;;;8.43;1.85;;;;;;;;;;4998900;28;20149;-74
2022/02/24 12:13:53;;;;;;;0.10;0.10;;;;;;;;;;4993917;28;20515;-74
2022/02/24 12:16:20;;;;;;;0.17;0.17;;;;;;;;;;4999441;28;20033;-73
2022/02/24 12:18:47;;;;;;;2.65;1.08;;;;;;;;;;5004176;28;20060;-74
2022/02/24 12:21:26;;;;;;;0.15;0.15;;;;;;;;;;5005935;28;20080;-73
2022/02/24 12:23:53;;;;;;;0.20;0.20;;;;;;;;;;5002236;28;20111;-73
2022/02/24 12:26:35;;;;;;;0.68;0.65;;;;;;;;;;5000765;28;20129;-73
2022/02/24 12:29:25;;;;;;;1.30;1.17;;;;;;;;;;5003823;28;20420;-75
2022/02/24 12:31:53;;;;;;;0.40;0.40;;;;;;;;;;4994998;28;20058;-74
2022/02/24 12:34:19;;;;;;;0.73;0.52;;;;;;;;;;4996017;28;21004;-76
2022/02/24 12:36:45;;;;;;;0.80;0.32;;;;;;;;;;4995161;28;20116;-75
2022/02/24 12:39:11;;;;;;;0.10;0.10;;;;;;;;;;5003570;28;20503;-74
2022/02/24 12:41:37;;;;;;;0.90;0.88;;;;;;;;;;4999830;28;20045;-74
2022/02/24 12:44:19;;;;;;;1.45;0.55;;;;;;;;;;4997877;28;20077;-74
2022/02/24 12:46:45;;;;;;;1.98;1.02;;;;;;;;;;4995228;28;20459;-75
2022/02/24 12:49:11;;;;;;;0.20;0.20;;;;;;;;;;5000318;28;20292;-76
2022/02/24 12:51:37;;;;;;;0.63;0.45;;;;;;;;;;4998640;28;20041;-75
2022/02/24 12:54:03;;;;;;;0.28;0.28;;;;;;;;;;5001702;28;20018;-74
2022/02/24 12:56:38;;;;;;;2.10;0.93;;;;;;;;;;5004252;28;20145;-74
2022/02/24 12:59:44;;;;;;;0.25;0.25;;;;;;;;;;5004209;28;20026;-75
2022/02/24 13:02:09;;;;;;;0.20;0.20;;;;;;;;;;5003791;28;20038;-73
2022/02/24 13:04:37;;;;;;;0.00;0.00;;;;;;;;;;5004235;28;20030;-74
2022/02/24 13:07:04;;;;;;;0.10;0.10;;;;;;;;;;5005865;28;20061;-74
2022/02/24 13:09:46;;;;;;;0.43;0.43;;;;;;;;;;5002625;28;20480;-74
2022/02/24 13:12:13;;;;;;;0.30;0.30;;;;;;;;;;4999505;28;20088;-73
2022/02/24 13:14:43;;;;;;;0.57;0.57;;;;;;;;;;5001497;28;20030;-74
2022/02/24 13:17:20;;;;;;;0.38;0.38;;;;;;;;;;5006031;28;20045;-72
2022/02/24 13:19:46;;;;;;;0.00;0.00;;;;;;;;;;5005722;28;20049;-74
2022/02/24 13:22:12;;;;;;;0.57;0.57;;;;;;;;;;5011665;28;20567;-76
2022/02/24 13:24:42;;;;;;;0.00;0.00;;;;;;;;;;5008004;28;20033;-81
2022/02/24 13:27:09;;;;;;;0.35;0.35;;;;;;;;;;5008427;28;20549;-78
2022/02/24 13:29:39;;;;;;;1.55;0.52;;;;;;;;;;5011565;28;20037;-75
2022/02/24 13:32:18;;;;;;;0.45;0.45;;;;;;;;;;5006628;28;20026;-75
2022/02/24 13:34:45;;;;;;;0.15;0.15;;;;;;;;;;5007849;28;20116;-75
2022/02/24 13:37:14;;;;;;;0.25;0.25;;;;;;;;;;5008981;28;20195;-74
2022/02/24 13:39:40;;;;;;;0.40;0.40;;;;;;;;;;5004818;28;20029;-76
2022/02/24 13:42:06;;;;;;;1.08;0.47;;;;;;;;;;4994428;28;20278;-74
2022/02/24 13:44:39;;;;;;;0.30;0.30;;;;;;;;;;5007315;28;20507;-76
2022/02/24 13:47:06;;;;;;;0.10;0.10;;;;;;;;;;5009707;28;20030;-77
2022/02/24 13:49:34;;;;;;;0.10;0.10;;;;;;;;;;5004828;28;20030;-75
2022/02/24 13:52:00;;;;;;;0.10;0.10;;;;;;;;;;4998509;28;20022;-75
2022/02/24 13:54:26;;;;;;;0.10;0.10;;;;;;;;;;5008571;28;20511;-75
2022/02/24 13:56:52;;;;;;;0.10;0.10;;;;;;;;;;4997496;28;20058;-76
2022/02/24 13:59:22;;;;;;;0.13;0.13;;;;;;;;;;5004204;28;20030;-76
2022/02/24 14:01:51;;;;;;;0.00;0.00;;;;;;;;;;5009184;28;20026;-76
2022/02/24 14:04:18;;;;;;;0.00;0.00;;;;;;;;;;5011157;28;20030;-77
2022/02/24 14:06:45;;;;;;;0.13;0.13;;;;;;;;;;5003870;28;20491;-76
2022/02/24 14:09:25;;;;;;;0.00;0.00;;;;;;;;;;5003531;28;20482;-76
2022/02/24 14:11:51;;;;;;;0.17;0.17;;;;;;;;;;5009606;28;20021;-76
2022/02/24 14:14:20;;;;;;;0.20;0.20;;;;;;;;;;5002273;28;20042;-77
2022/02/24 14:16:49;;;;;;;0.03;0.03;;;;;;;;;;5004701;28;20022;-77
2022/02/24 14:19:15;;;;;;;0.20;0.20;;;;;;;;;;4995577;28;20515;-76
2022/02/24 14:21:43;;;;;;;0.40;0.40;;;;;;;;;;4999711;28;20113;-76
2022/02/24 14:24:09;;;;;;;0.10;0.10;;;;;;;;;;5000732;28;20029;-77
2022/02/24 14:26:35;;;;;;;0.73;0.73;;;;;;;;;;5000673;28;20026;-76
2022/02/24 14:29:01;;;;;;;0.05;0.05;;;;;;;;;;5007841;28;20022;-76
2022/02/24 14:31:27;;;;;;;0.43;0.43;;;;;;;;;;4998895;28;20111;-76
2022/02/24 14:33:53;;;;;;;0.00;0.00;;;;;;;;;;5001471;28;20033;-76
2022/02/24 14:36:20;;;;;;;1.33;0.28;;;;;;;;;;5007961;28;20030;-76
2022/02/24 14:38:46;;;;;;;0.52;0.43;;;;;;;;;;4997284;28;20038;-77
2022/02/24 14:41:12;;;;;;;0.40;0.40;;;;;;;;;;5007278;28;20091;-77
2022/02/24 14:43:39;;;;;;;0.20;0.20;;;;;;;;;;5001986;28;20044;-77